Time;durP1;ratioP1;P1;durP2;ratioP2;P2;SDS_P1;SDS_P2;PMS_P1;PMS_P2;Temp;Humidity;BMP_temperature;BMP_pressure;BME280_temperature;BME280_humidity;BME280_pressure;Samples;Min_cycle;Max_cycle;Signal;HPM_P1;HPM_P2
2021/03/28 00:00:08;;;;;;;4.47;2.80;;;;;;;;;;775816;179;921548;-61
2021/03/28 00:02:36;;;;;;;11.43;2.70;;;;;;;;;;775760;179;1021963;-60
2021/03/28 00:05:17;;;;;;;4.30;2.60;;;;;;;;;;783590;179;919365;-61
2021/03/28 00:07:43;;;;;;;5.90;3.10;;;;;;;;;;780969;179;918869;-62
2021/03/28 00:10:09;;;;;;;3.80;2.83;;;;;;;;;;776455;179;918100;-62
2021/03/28 00:12:36;;;;;;;4.40;2.87;;;;;;;;;;771173;179;1323402;-62
2021/03/28 00:15:01;;;;;;;4.97;3.43;;;;;;;;;;785629;179;616226;-63
2021/03/28 00:17:28;;;;;;;5.77;3.13;;;;;;;;;;776111;179;624403;-62
2021/03/28 00:19:54;;;;;;;7.33;3.23;;;;;;;;;;782340;180;634244;-62
2021/03/28 00:22:20;;;;;;;9.23;3.73;;;;;;;;;;782725;179;617310;-62
2021/03/28 00:24:49;;;;;;;6.13;3.10;;;;;;;;;;783278;179;633382;-63
2021/03/28 00:27:16;;;;;;;3.00;2.20;;;;;;;;;;777695;179;919597;-65
2021/03/28 00:29:52;;;;;;;4.90;2.60;;;;;;;;;;776762;179;919429;-60
2021/03/28 00:32:17;;;;;;;5.50;2.53;;;;;;;;;;782080;179;918549;-62
2021/03/28 00:34:43;;;;;;;4.40;2.80;;;;;;;;;;774501;179;1184786;-62
2021/03/28 00:37:19;;;;;;;5.83;2.73;;;;;;;;;;778206;179;919289;-62
2021/03/28 00:40:00;;;;;;;7.80;3.30;;;;;;;;;;774679;179;1019095;-63
2021/03/28 00:42:48;;;;;;;4.60;2.93;;;;;;;;;;776921;179;915958;-62
2021/03/28 00:45:15;;;;;;;6.28;3.72;;;;;;;;;;776233;179;919716;-62
2021/03/28 00:47:41;;;;;;;5.82;3.35;;;;;;;;;;775252;179;919246;-62
2021/03/28 00:50:07;;;;;;;5.23;3.43;;;;;;;;;;780510;178;918973;-62
2021/03/28 00:52:33;;;;;;;6.50;3.50;;;;;;;;;;779233;179;919576;-62
2021/03/28 00:55:01;;;;;;;4.63;3.27;;;;;;;;;;776506;179;919633;-62
2021/03/28 00:57:26;;;;;;;3.73;2.40;;;;;;;;;;782596;179;918845;-64
2021/03/28 00:59:54;;;;;;;6.13;2.90;;;;;;;;;;776118;179;919714;-63
2021/03/28 01:02:20;;;;;;;3.67;2.73;;;;;;;;;;779985;179;920152;-63
2021/03/28 01:04:46;;;;;;;9.60;3.37;;;;;;;;;;780007;179;919206;-62
2021/03/28 01:07:13;;;;;;;3.72;2.62;;;;;;;;;;775699;179;920006;-61
2021/03/28 01:09:39;;;;;;;4.50;2.00;;;;;;;;;;773317;179;919611;-61
2021/03/28 01:12:08;;;;;;;5.13;2.40;;;;;;;;;;776338;179;919400;-61
2021/03/28 01:14:48;;;;;;;3.45;2.30;;;;;;;;;;779185;179;918335;-61
2021/03/28 01:17:20;;;;;;;4.63;2.90;;;;;;;;;;787115;179;918839;-63
2021/03/28 01:19:45;;;;;;;3.17;2.20;;;;;;;;;;773269;179;1085754;-62
2021/03/28 01:22:18;;;;;;;4.00;1.70;;;;;;;;;;777352;179;919226;-62
2021/03/28 01:24:47;;;;;;;4.20;2.50;;;;;;;;;;776868;179;919970;-61
2021/03/28 01:27:25;;;;;;;5.90;2.83;;;;;;;;;;781634;179;918910;-61
2021/03/28 01:29:55;;;;;;;3.50;2.57;;;;;;;;;;782654;179;919180;-63
2021/03/28 01:32:21;;;;;;;2.67;2.17;;;;;;;;;;780137;179;864469;-63
2021/03/28 01:34:48;;;;;;;3.05;2.65;;;;;;;;;;772952;179;919118;-63
2021/03/28 01:37:16;;;;;;;3.93;2.47;;;;;;;;;;782318;179;918801;-62
2021/03/28 01:39:43;;;;;;;6.73;2.60;;;;;;;;;;778641;179;922208;-62
2021/03/28 01:42:10;;;;;;;3.57;2.37;;;;;;;;;;770637;179;1947026;-61
2021/03/28 01:44:52;;;;;;;4.43;3.60;;;;;;;;;;776875;179;1019872;-63
2021/03/28 01:47:19;;;;;;;3.90;2.43;;;;;;;;;;772680;179;919532;-65
2021/03/28 01:50:00;;;;;;;6.40;2.23;;;;;;;;;;782326;179;815577;-63
2021/03/28 01:52:30;;;;;;;4.17;2.67;;;;;;;;;;766860;179;918673;-62
2021/03/28 01:54:59;;;;;;;9.53;3.70;;;;;;;;;;777701;179;919817;-63
2021/03/28 01:57:31;;;;;;;3.77;2.30;;;;;;;;;;772296;179;919356;-62
2021/03/28 02:00:03;;;;;;;3.83;2.00;;;;;;;;;;775300;179;1019353;-63
2021/03/28 02:02:29;;;;;;;4.40;2.47;;;;;;;;;;783053;178;990801;-62
2021/03/28 02:04:54;;;;;;;5.33;3.00;;;;;;;;;;780551;179;919255;-63
2021/03/28 02:07:20;;;;;;;4.47;2.55;;;;;;;;;;776643;179;946914;-62
2021/03/28 02:09:56;;;;;;;4.10;2.73;;;;;;;;;;782370;179;920007;-63
2021/03/28 02:12:28;;;;;;;3.73;2.90;;;;;;;;;;780526;179;919122;-63
2021/03/28 02:14:55;;;;;;;3.47;2.70;;;;;;;;;;775134;179;919522;-64
2021/03/28 02:17:26;;;;;;;4.20;3.03;;;;;;;;;;774841;179;919889;-63
2021/03/28 02:19:58;;;;;;;7.17;3.40;;;;;;;;;;778735;179;929121;-61
2021/03/28 02:22:23;;;;;;;4.70;3.17;;;;;;;;;;770383;179;2837264;-61
2021/03/28 02:24:53;;;;;;;4.83;2.90;;;;;;;;;;777168;179;920426;-61
2021/03/28 02:27:22;;;;;;;6.77;3.57;;;;;;;;;;775596;179;921037;-61
2021/03/28 02:29:48;;;;;;;3.57;2.80;;;;;;;;;;778528;179;926381;-60
2021/03/28 02:32:15;;;;;;;5.13;3.63;;;;;;;;;;781535;179;918602;-62
2021/03/28 02:34:47;;;;;;;4.73;3.70;;;;;;;;;;780088;179;916496;-61
2021/03/28 02:37:13;;;;;;;4.33;3.60;;;;;;;;;;776623;179;909594;-64
2021/03/28 02:39:39;;;;;;;7.25;4.28;;;;;;;;;;777370;179;946776;-60
2021/03/28 02:42:08;;;;;;;5.17;3.03;;;;;;;;;;791992;176;920324;-61
2021/03/28 02:44:49;;;;;;;7.53;3.85;;;;;;;;;;775043;179;919487;-60
2021/03/28 02:47:20;;;;;;;3.40;2.70;;;;;;;;;;776997;179;919832;-62
2021/03/28 02:49:52;;;;;;;6.10;4.03;;;;;;;;;;775219;179;919952;-62
2021/03/28 02:52:20;;;;;;;6.83;3.07;;;;;;;;;;779366;180;918339;-63
2021/03/28 02:54:47;;;;;;;4.83;3.43;;;;;;;;;;787949;176;919535;-62
2021/03/28 02:57:12;;;;;;;5.33;3.63;;;;;;;;;;774711;179;919755;-61
2021/03/28 02:59:40;;;;;;;5.80;3.53;;;;;;;;;;773936;179;1124510;-63
2021/03/28 03:02:06;;;;;;;6.07;3.40;;;;;;;;;;780326;181;919036;-63
2021/03/28 03:04:33;;;;;;;4.17;2.90;;;;;;;;;;778700;179;919020;-62
2021/03/28 03:07:03;;;;;;;6.90;3.67;;;;;;;;;;779630;179;919298;-62
2021/03/28 03:09:35;;;;;;;5.10;3.30;;;;;;;;;;774947;179;1089189;-63
2021/03/28 03:12:03;;;;;;;6.77;3.90;;;;;;;;;;783864;179;919139;-64
2021/03/28 03:14:33;;;;;;;5.50;3.37;;;;;;;;;;775946;179;919313;-65
2021/03/28 03:16:59;;;;;;;8.17;3.23;;;;;;;;;;770969;179;2454661;-66
2021/03/28 03:19:40;;;;;;;4.13;3.00;;;;;;;;;;772482;179;918947;-66
2021/03/28 03:22:11;;;;;;;6.33;4.00;;;;;;;;;;775230;179;919392;-67
2021/03/28 03:24:36;;;;;;;4.80;2.70;;;;;;;;;;784729;179;919041;-70
2021/03/28 03:27:18;;;;;;;5.30;3.33;;;;;;;;;;775610;179;948235;-70
2021/03/28 03:29:55;;;;;;;3.90;2.90;;;;;;;;;;772055;179;1812440;-70
2021/03/28 03:32:24;;;;;;;4.07;3.30;;;;;;;;;;779491;179;919240;-71
2021/03/28 03:35:05;;;;;;;4.60;3.15;;;;;;;;;;772669;179;914426;-71
2021/03/28 03:37:47;;;;;;;4.62;3.53;;;;;;;;;;774667;179;1021489;-71
2021/03/28 03:40:16;;;;;;;8.27;4.37;;;;;;;;;;764121;180;992266;-71
2021/03/28 03:42:49;;;;;;;5.40;3.70;;;;;;;;;;782242;179;919429;-70
2021/03/28 03:45:20;;;;;;;6.00;4.47;;;;;;;;;;775214;179;944656;-68
2021/03/28 03:47:54;;;;;;;6.30;4.60;;;;;;;;;;776278;179;918832;-69
2021/03/28 03:50:21;;;;;;;7.53;4.27;;;;;;;;;;762701;179;3133848;-70
2021/03/28 03:53:00;;;;;;;6.75;5.20;;;;;;;;;;777894;179;1421060;-67
2021/03/28 03:55:26;;;;;;;8.10;5.05;;;;;;;;;;776631;179;941476;-68
2021/03/28 03:57:52;;;;;;;5.63;4.33;;;;;;;;;;774428;180;918871;-68
2021/03/28 04:00:19;;;;;;;5.40;4.10;;;;;;;;;;776684;179;919614;-68
2021/03/28 04:02:51;;;;;;;6.30;4.30;;;;;;;;;;772944;179;919945;-68
2021/03/28 04:05:23;;;;;;;6.90;5.00;;;;;;;;;;784109;179;919376;-68
2021/03/28 04:08:04;;;;;;;5.80;5.00;;;;;;;;;;774511;179;920309;-68
2021/03/28 04:10:47;;;;;;;6.37;4.40;;;;;;;;;;776842;179;918861;-68
2021/03/28 04:13:23;;;;;;;7.60;4.70;;;;;;;;;;777127;179;918929;-68
2021/03/28 04:15:54;;;;;;;6.57;5.03;;;;;;;;;;775884;179;919464;-69
2021/03/28 04:18:22;;;;;;;4.37;3.80;;;;;;;;;;776509;179;918946;-69
2021/03/28 04:20:49;;;;;;;5.93;4.43;;;;;;;;;;777730;179;944139;-69
2021/03/28 04:23:20;;;;;;;6.87;4.10;;;;;;;;;;773604;179;917405;-68
2021/03/28 04:25:47;;;;;;;4.93;3.77;;;;;;;;;;780312;177;942080;-69
2021/03/28 04:28:23;;;;;;;8.67;4.63;;;;;;;;;;773753;179;922166;-70
2021/03/28 04:30:52;;;;;;;7.70;4.67;;;;;;;;;;779715;179;918359;-70
2021/03/28 04:33:22;;;;;;;5.60;4.10;;;;;;;;;;777932;179;1395143;-68
2021/03/28 04:35:48;;;;;;;8.90;3.85;;;;;;;;;;776254;179;916292;-69
2021/03/28 04:38:16;;;;;;;7.63;4.67;;;;;;;;;;776756;179;915375;-68
2021/03/28 04:40:48;;;;;;;6.80;3.63;;;;;;;;;;778604;179;919709;-69
2021/03/28 04:43:20;;;;;;;4.72;4.00;;;;;;;;;;782099;179;918273;-69
2021/03/28 04:46:02;;;;;;;6.83;5.20;;;;;;;;;;779910;179;918228;-68
2021/03/28 04:48:44;;;;;;;5.50;4.27;;;;;;;;;;782679;179;919619;-69
2021/03/28 04:51:15;;;;;;;4.60;4.03;;;;;;;;;;771449;179;919421;-69
2021/03/28 04:53:41;;;;;;;7.57;5.10;;;;;;;;;;782179;179;629768;-69
2021/03/28 04:56:13;;;;;;;6.37;4.70;;;;;;;;;;778063;179;918484;-69
2021/03/28 04:58:58;;;;;;;8.13;5.27;;;;;;;;;;780590;179;919323;-68
2021/03/28 05:01:24;;;;;;;7.77;5.47;;;;;;;;;;770854;179;921814;-69
2021/03/28 05:04:07;;;;;;;11.10;6.93;;;;;;;;;;781520;179;919068;-68
2021/03/28 05:06:34;;;;;;;8.53;5.87;;;;;;;;;;780484;179;917435;-69
2021/03/28 05:09:06;;;;;;;9.37;5.90;;;;;;;;;;773386;179;921889;-69
2021/03/28 05:11:49;;;;;;;7.43;5.53;;;;;;;;;;775441;179;919580;-69
2021/03/28 05:14:29;;;;;;;8.23;6.00;;;;;;;;;;765656;180;918982;-69
2021/03/28 05:17:01;;;;;;;7.75;5.45;;;;;;;;;;763831;179;1021611;-68
2021/03/28 05:19:37;;;;;;;11.10;5.60;;;;;;;;;;773925;179;918847;-69
2021/03/28 05:22:09;;;;;;;7.23;6.07;;;;;;;;;;785801;176;918615;-69
2021/03/28 05:24:40;;;;;;;10.93;6.70;;;;;;;;;;783484;179;918064;-69
2021/03/28 05:27:21;;;;;;;10.57;7.30;;;;;;;;;;775472;179;919646;-68
2021/03/28 05:29:53;;;;;;;13.23;7.57;;;;;;;;;;772804;179;918951;-69
2021/03/28 05:32:34;;;;;;;15.43;8.47;;;;;;;;;;775509;179;919156;-70
2021/03/28 05:35:21;;;;;;;16.73;8.27;;;;;;;;;;765120;179;919297;-68
2021/03/28 05:37:50;;;;;;;12.67;7.80;;;;;;;;;;774540;179;920705;-67
2021/03/28 05:40:21;;;;;;;10.97;7.23;;;;;;;;;;775278;179;1193170;-65
2021/03/28 05:42:51;;;;;;;12.67;8.10;;;;;;;;;;782346;179;919737;-64
2021/03/28 05:45:19;;;;;;;11.93;8.50;;;;;;;;;;773145;179;1063642;-66
2021/03/28 05:47:47;;;;;;;15.00;8.20;;;;;;;;;;777372;179;919330;-66
2021/03/28 05:50:13;;;;;;;16.40;10.33;;;;;;;;;;774014;179;1019779;-65
2021/03/28 05:52:40;;;;;;;13.97;8.03;;;;;;;;;;783574;179;919194;-65
2021/03/28 05:55:07;;;;;;;15.93;10.13;;;;;;;;;;779213;179;901609;-64
2021/03/28 05:57:36;;;;;;;14.57;9.13;;;;;;;;;;776427;179;1015113;-64
2021/03/28 06:00:14;;;;;;;10.83;8.30;;;;;;;;;;779139;179;918879;-65
2021/03/28 06:02:56;;;;;;;15.00;8.50;;;;;;;;;;786740;179;922149;-65
2021/03/28 06:05:24;;;;;;;14.40;9.03;;;;;;;;;;783483;179;919414;-63
2021/03/28 06:07:52;;;;;;;11.30;7.80;;;;;;;;;;776077;179;920819;-65
2021/03/28 06:10:30;;;;;;;11.73;8.47;;;;;;;;;;774705;179;920016;-65
2021/03/28 06:12:59;;;;;;;9.80;7.60;;;;;;;;;;775827;179;918466;-64
2021/03/28 06:15:28;;;;;;;19.93;10.50;;;;;;;;;;776129;179;918392;-64
2021/03/28 06:17:54;;;;;;;12.03;7.97;;;;;;;;;;780861;179;912011;-64
2021/03/28 06:20:22;;;;;;;12.60;7.70;;;;;;;;;;777282;179;909877;-62
2021/03/28 06:22:53;;;;;;;12.37;8.60;;;;;;;;;;773533;179;1169899;-63
2021/03/28 06:25:25;;;;;;;12.93;8.97;;;;;;;;;;782269;179;915285;-63
2021/03/28 06:28:07;;;;;;;16.13;9.30;;;;;;;;;;782792;179;917277;-62
2021/03/28 06:30:49;;;;;;;14.43;9.85;;;;;;;;;;776423;179;920230;-63
2021/03/28 06:33:17;;;;;;;13.77;8.37;;;;;;;;;;772943;179;919180;-63
2021/03/28 06:35:43;;;;;;;11.60;8.50;;;;;;;;;;776254;179;919928;-62
2021/03/28 06:38:15;;;;;;;12.33;8.40;;;;;;;;;;773352;179;932923;-62
2021/03/28 06:40:43;;;;;;;12.90;8.83;;;;;;;;;;778108;179;916734;-61
2021/03/28 06:43:22;;;;;;;11.37;7.73;;;;;;;;;;780753;177;915268;-63
2021/03/28 06:46:09;;;;;;;13.27;9.53;;;;;;;;;;785804;179;920952;-62
2021/03/28 06:48:36;;;;;;;15.83;8.57;;;;;;;;;;784260;177;920246;-62
2021/03/28 06:51:19;;;;;;;16.17;8.97;;;;;;;;;;780017;179;919075;-65
2021/03/28 06:53:45;;;;;;;16.77;9.17;;;;;;;;;;769719;179;623496;-61
2021/03/28 06:56:31;;;;;;;16.60;10.23;;;;;;;;;;782182;179;621093;-61
2021/03/28 06:59:00;;;;;;;10.63;7.90;;;;;;;;;;768144;179;673834;-62
2021/03/28 07:01:35;;;;;;;14.30;8.83;;;;;;;;;;780310;179;627126;-62
2021/03/28 07:04:03;;;;;;;13.83;9.10;;;;;;;;;;788586;176;625372;-61
2021/03/28 07:06:46;;;;;;;12.47;8.47;;;;;;;;;;782092;179;635538;-62
2021/03/28 07:09:15;;;;;;;15.20;9.40;;;;;;;;;;774916;180;643890;-65
2021/03/28 07:11:59;;;;;;;18.37;8.73;;;;;;;;;;781213;179;628153;-62
2021/03/28 07:14:31;;;;;;;10.90;8.47;;;;;;;;;;776447;179;627692;-65
2021/03/28 07:16:56;;;;;;;8.83;6.60;;;;;;;;;;781347;179;656741;-61
2021/03/28 07:19:28;;;;;;;10.73;6.67;;;;;;;;;;780340;179;641095;-61
2021/03/28 07:21:57;;;;;;;15.23;7.70;;;;;;;;;;789156;179;626601;-61
2021/03/28 07:24:43;;;;;;;10.70;7.47;;;;;;;;;;778868;179;632281;-62
2021/03/28 07:27:26;;;;;;;9.75;7.20;;;;;;;;;;775009;179;919238;-60
2021/03/28 07:29:58;;;;;;;13.33;8.70;;;;;;;;;;758334;180;2232210;-61
2021/03/28 07:32:30;;;;;;;11.33;7.03;;;;;;;;;;782334;179;618700;-63
2021/03/28 07:35:02;;;;;;;14.02;7.60;;;;;;;;;;772376;179;1614771;-64
2021/03/28 07:37:33;;;;;;;14.63;7.87;;;;;;;;;;786283;179;624221;-63
2021/03/28 07:40:15;;;;;;;12.97;8.50;;;;;;;;;;785666;179;625233;-63
2021/03/28 07:42:46;;;;;;;11.90;7.83;;;;;;;;;;775678;179;637628;-62
2021/03/28 07:45:18;;;;;;;11.20;8.07;;;;;;;;;;778932;179;621458;-65
2021/03/28 07:47:47;;;;;;;17.77;7.97;;;;;;;;;;779852;179;623407;-62
2021/03/28 07:50:18;;;;;;;10.38;6.55;;;;;;;;;;773380;179;1573282;-62
2021/03/28 07:52:59;;;;;;;10.93;7.50;;;;;;;;;;783753;179;640699;-62
2021/03/28 07:55:25;;;;;;;8.30;6.57;;;;;;;;;;778252;179;613334;-62
2021/03/28 07:57:56;;;;;;;15.23;7.60;;;;;;;;;;783293;179;664582;-62
2021/03/28 08:00:23;;;;;;;6.97;5.57;;;;;;;;;;781172;177;629199;-62
2021/03/28 08:03:05;;;;;;;13.73;6.50;;;;;;;;;;780985;179;621269;-62
2021/03/28 08:05:49;;;;;;;10.20;6.13;;;;;;;;;;779189;179;661230;-63
2021/03/28 08:08:21;;;;;;;13.20;5.67;;;;;;;;;;778066;179;629995;-62
2021/03/28 08:11:02;;;;;;;8.40;5.33;;;;;;;;;;782844;179;635726;-64
2021/03/28 08:13:30;;;;;;;9.63;6.60;;;;;;;;;;766497;179;3644888;-62
2021/03/28 08:15:59;;;;;;;9.80;5.63;;;;;;;;;;777907;179;816557;-62
2021/03/28 08:18:25;;;;;;;9.50;6.40;;;;;;;;;;781969;179;641718;-62
2021/03/28 08:21:08;;;;;;;10.43;6.03;;;;;;;;;;779158;179;665428;-63
2021/03/28 08:23:37;;;;;;;8.57;6.50;;;;;;;;;;787044;177;636789;-62
2021/03/28 08:26:21;;;;;;;12.20;6.70;;;;;;;;;;786250;179;622768;-61
2021/03/28 08:28:51;;;;;;;10.47;7.40;;;;;;;;;;788752;179;636102;-62
2021/03/28 08:31:32;;;;;;;13.23;6.07;;;;;;;;;;777729;179;634013;-62
2021/03/28 08:34:18;;;;;;;9.70;6.80;;;;;;;;;;772710;179;629132;-62
2021/03/28 08:36:46;;;;;;;11.70;6.50;;;;;;;;;;766301;179;632099;-61
2021/03/28 08:39:27;;;;;;;10.30;6.30;;;;;;;;;;781388;179;631302;-64
2021/03/28 08:42:08;;;;;;;8.90;5.57;;;;;;;;;;766734;180;636759;-61
2021/03/28 08:44:52;;;;;;;12.07;7.17;;;;;;;;;;775638;179;717771;-62
2021/03/28 08:47:24;;;;;;;11.87;7.40;;;;;;;;;;768468;180;619042;-62
2021/03/28 08:50:02;;;;;;;9.70;6.17;;;;;;;;;;778209;179;1035373;-62
2021/03/28 08:52:30;;;;;;;13.57;7.40;;;;;;;;;;774792;179;632671;-62
2021/03/28 08:54:59;;;;;;;8.37;6.50;;;;;;;;;;785616;179;625346;-62
2021/03/28 08:57:36;;;;;;;13.80;6.67;;;;;;;;;;762637;179;3674861;-62
2021/03/28 09:00:05;;;;;;;15.03;7.20;;;;;;;;;;783736;179;621466;-61
2021/03/28 09:02:44;;;;;;;10.03;5.33;;;;;;;;;;780546;179;641417;-63
2021/03/28 09:05:16;;;;;;;11.30;6.90;;;;;;;;;;781168;179;638411;-63
2021/03/28 09:07:43;;;;;;;11.43;6.17;;;;;;;;;;783626;179;623823;-63
2021/03/28 09:10:24;;;;;;;8.20;5.63;;;;;;;;;;780398;177;753325;-62
2021/03/28 09:12:56;;;;;;;9.40;5.57;;;;;;;;;;770819;179;635017;-65
2021/03/28 09:15:23;;;;;;;9.40;5.27;;;;;;;;;;783193;179;628269;-62
2021/03/28 09:17:52;;;;;;;8.70;5.40;;;;;;;;;;778015;179;660549;-70
2021/03/28 09:20:18;;;;;;;11.40;5.90;;;;;;;;;;785080;179;626674;-63
2021/03/28 09:23:02;;;;;;;12.23;6.90;;;;;;;;;;781841;179;624888;-63
2021/03/28 09:25:29;;;;;;;12.97;6.67;;;;;;;;;;772922;179;629722;-62
2021/03/28 09:27:55;;;;;;;8.63;5.70;;;;;;;;;;781036;179;772155;-62
2021/03/28 09:30:25;;;;;;;13.83;6.30;;;;;;;;;;779802;179;641925;-63
2021/03/28 09:33:03;;;;;;;13.07;6.23;;;;;;;;;;789751;176;634538;-63
2021/03/28 09:35:44;;;;;;;10.00;5.67;;;;;;;;;;783006;179;630193;-63
2021/03/28 09:38:13;;;;;;;12.90;6.20;;;;;;;;;;787465;179;617839;-63
2021/03/28 09:40:43;;;;;;;11.57;5.80;;;;;;;;;;774567;179;1047020;-64
2021/03/28 09:43:28;;;;;;;10.50;5.70;;;;;;;;;;781759;179;629335;-62
2021/03/28 09:45:57;;;;;;;7.70;4.73;;;;;;;;;;758480;182;633342;-62
2021/03/28 09:48:28;;;;;;;11.87;4.00;;;;;;;;;;777551;179;616995;-63
2021/03/28 09:50:57;;;;;;;8.47;4.97;;;;;;;;;;777022;179;617645;-62
2021/03/28 09:53:23;;;;;;;11.33;5.20;;;;;;;;;;781582;179;626405;-62
2021/03/28 09:56:08;;;;;;;9.50;4.80;;;;;;;;;;778683;179;632153;-63
2021/03/28 09:58:36;;;;;;;9.60;5.27;;;;;;;;;;775514;179;626042;-63
2021/03/28 10:01:04;;;;;;;13.33;5.80;;;;;;;;;;776320;179;644972;-65
2021/03/28 10:03:31;;;;;;;7.70;4.53;;;;;;;;;;788597;176;632348;-62
2021/03/28 10:05:59;;;;;;;13.10;4.60;;;;;;;;;;774415;179;1196470;-62
2021/03/28 10:08:25;;;;;;;10.93;4.40;;;;;;;;;;780249;179;632718;-64
2021/03/28 10:10:55;;;;;;;15.90;4.57;;;;;;;;;;780979;179;875823;-62
2021/03/28 10:13:26;;;;;;;10.87;4.50;;;;;;;;;;787067;179;623037;-62
2021/03/28 10:15:57;;;;;;;6.43;3.30;;;;;;;;;;778048;179;617537;-61
2021/03/28 10:18:24;;;;;;;6.93;4.23;;;;;;;;;;779455;179;628443;-61
2021/03/28 10:20:51;;;;;;;11.90;5.50;;;;;;;;;;776733;179;647862;-62
2021/03/28 10:23:21;;;;;;;10.03;5.47;;;;;;;;;;792332;175;626666;-62
2021/03/28 10:26:01;;;;;;;8.37;5.40;;;;;;;;;;775114;179;1722122;-62
2021/03/28 10:28:45;;;;;;;5.60;4.13;;;;;;;;;;769690;179;626065;-61
2021/03/28 10:31:26;;;;;;;7.43;4.40;;;;;;;;;;778503;178;630638;-62
2021/03/28 10:33:53;;;;;;;7.80;5.17;;;;;;;;;;780108;179;622111;-62
2021/03/28 10:36:21;;;;;;;11.40;4.73;;;;;;;;;;776986;179;617914;-62
2021/03/28 10:39:03;;;;;;;14.23;6.00;;;;;;;;;;786262;179;628190;-63
2021/03/28 10:41:35;;;;;;;10.77;4.87;;;;;;;;;;784370;179;699425;-65
2021/03/28 10:44:01;;;;;;;12.00;5.60;;;;;;;;;;773286;179;623701;-61
2021/03/28 10:46:27;;;;;;;8.30;5.62;;;;;;;;;;777228;179;916514;-62
2021/03/28 10:48:57;;;;;;;12.90;6.60;;;;;;;;;;779027;179;731647;-61
2021/03/28 10:51:41;;;;;;;11.47;4.90;;;;;;;;;;780861;179;620855;-62
2021/03/28 10:54:13;;;;;;;10.10;4.37;;;;;;;;;;787150;179;625810;-63
2021/03/28 10:56:41;;;;;;;5.43;3.93;;;;;;;;;;778773;179;627702;-62
2021/03/28 10:59:23;;;;;;;8.33;4.73;;;;;;;;;;780805;179;620731;-62
2021/03/28 11:01:55;;;;;;;11.27;5.10;;;;;;;;;;776880;179;636999;-68
2021/03/28 11:04:27;;;;;;;8.00;5.30;;;;;;;;;;780257;179;642858;-62
2021/03/28 11:06:59;;;;;;;8.20;4.50;;;;;;;;;;770217;180;663782;-62
2021/03/28 11:09:45;;;;;;;5.93;4.23;;;;;;;;;;790026;179;629575;-70
2021/03/28 11:12:15;;;;;;;8.97;4.83;;;;;;;;;;784744;179;625033;-65
2021/03/28 11:14:41;;;;;;;8.90;3.73;;;;;;;;;;781113;179;629592;-65
2021/03/28 11:17:12;;;;;;;5.97;3.63;;;;;;;;;;780982;179;618170;-65
2021/03/28 11:19:44;;;;;;;10.10;4.77;;;;;;;;;;777497;179;634597;-62
2021/03/28 11:22:14;;;;;;;10.43;4.03;;;;;;;;;;784274;179;621009;-62
2021/03/28 11:24:59;;;;;;;11.40;4.93;;;;;;;;;;782917;179;621268;-61
2021/03/28 11:27:37;;;;;;;7.80;3.73;;;;;;;;;;787626;179;630912;-61
2021/03/28 11:30:09;;;;;;;5.80;4.40;;;;;;;;;;786259;179;629836;-61
2021/03/28 11:32:40;;;;;;;7.83;3.83;;;;;;;;;;782561;179;623213;-61
2021/03/28 11:35:19;;;;;;;6.93;3.43;;;;;;;;;;781652;177;747723;-61
2021/03/28 11:37:49;;;;;;;4.50;3.43;;;;;;;;;;782441;179;635134;-62
2021/03/28 11:40:27;;;;;;;10.33;3.77;;;;;;;;;;778831;178;632436;-61
2021/03/28 11:42:53;;;;;;;12.10;4.63;;;;;;;;;;787408;179;624747;-61
2021/03/28 11:45:24;;;;;;;6.53;3.87;;;;;;;;;;777056;179;629446;-62
2021/03/28 11:47:50;;;;;;;5.13;2.70;;;;;;;;;;782832;178;625424;-62
2021/03/28 11:50:23;;;;;;;10.13;4.13;;;;;;;;;;778454;179;625168;-62
2021/03/28 11:52:49;;;;;;;5.93;3.90;;;;;;;;;;784977;179;628915;-61
2021/03/28 11:55:14;;;;;;;10.30;4.05;;;;;;;;;;777494;179;986203;-61
2021/03/28 11:57:40;;;;;;;8.87;5.03;;;;;;;;;;782288;179;619479;-61
2021/03/28 12:00:12;;;;;;;10.07;3.70;;;;;;;;;;779559;179;639451;-64
2021/03/28 12:02:38;;;;;;;4.67;3.57;;;;;;;;;;777709;179;624680;-61
2021/03/28 12:05:22;;;;;;;10.93;4.50;;;;;;;;;;779267;179;613551;-61
2021/03/28 12:07:48;;;;;;;7.70;3.97;;;;;;;;;;779771;179;628988;-64
2021/03/28 12:10:14;;;;;;;10.97;3.23;;;;;;;;;;776770;179;649025;-61
2021/03/28 12:12:55;;;;;;;17.37;4.05;;;;;;;;;;785546;179;636009;-62
2021/03/28 12:15:26;;;;;;;4.30;3.07;;;;;;;;;;781328;179;632061;-62
2021/03/28 12:17:55;;;;;;;7.90;3.47;;;;;;;;;;788861;179;624452;-64
2021/03/28 12:20:21;;;;;;;6.50;3.80;;;;;;;;;;774483;179;643791;-61
2021/03/28 12:22:47;;;;;;;8.05;3.97;;;;;;;;;;781115;179;638141;-61
2021/03/28 12:25:28;;;;;;;7.10;3.27;;;;;;;;;;782856;179;630237;-64
2021/03/28 12:28:11;;;;;;;11.83;3.83;;;;;;;;;;788776;179;640636;-64
2021/03/28 12:30:37;;;;;;;7.37;4.47;;;;;;;;;;784115;179;637696;-61
2021/03/28 12:33:06;;;;;;;7.00;3.70;;;;;;;;;;778101;179;1196828;-61
2021/03/28 12:35:32;;;;;;;6.57;3.93;;;;;;;;;;781879;179;665364;-61
2021/03/28 12:37:58;;;;;;;10.03;3.90;;;;;;;;;;788341;179;626519;-61
2021/03/28 12:40:25;;;;;;;8.27;3.43;;;;;;;;;;779277;179;641240;-62
2021/03/28 12:42:51;;;;;;;10.43;3.73;;;;;;;;;;777561;179;636197;-61
2021/03/28 12:45:31;;;;;;;5.87;3.70;;;;;;;;;;780406;178;629105;-63
2021/03/28 12:47:57;;;;;;;6.53;3.90;;;;;;;;;;781287;179;632610;-62
2021/03/28 12:50:26;;;;;;;6.70;4.00;;;;;;;;;;786375;179;645458;-62
2021/03/28 12:52:51;;;;;;;7.33;3.60;;;;;;;;;;780268;179;629376;-62
2021/03/28 12:55:17;;;;;;;6.53;3.73;;;;;;;;;;782640;179;616447;-61
2021/03/28 12:57:45;;;;;;;9.13;3.83;;;;;;;;;;785224;179;636661;-61
2021/03/28 13:00:15;;;;;;;7.40;3.70;;;;;;;;;;785640;179;625190;-61
2021/03/28 13:02:41;;;;;;;5.87;3.67;;;;;;;;;;781155;179;766546;-61
2021/03/28 13:05:07;;;;;;;7.20;3.70;;;;;;;;;;782401;179;626176;-61
2021/03/28 13:07:34;;;;;;;6.30;3.07;;;;;;;;;;782116;179;628025;-61
2021/03/28 13:10:00;;;;;;;9.13;3.40;;;;;;;;;;776159;179;1604931;-61
2021/03/28 13:12:26;;;;;;;10.00;3.40;;;;;;;;;;778657;179;658451;-63
2021/03/28 13:14:52;;;;;;;5.83;3.77;;;;;;;;;;785549;179;624908;-61
2021/03/28 13:17:18;;;;;;;9.23;4.23;;;;;;;;;;779957;179;628406;-62
2021/03/28 13:19:45;;;;;;;9.07;3.37;;;;;;;;;;779883;179;618343;-60
2021/03/28 13:22:18;;;;;;;14.17;4.30;;;;;;;;;;783704;179;617260;-64
2021/03/28 13:24:44;;;;;;;9.83;4.80;;;;;;;;;;783143;179;629985;-60
2021/03/28 13:27:11;;;;;;;8.10;3.50;;;;;;;;;;780883;179;624008;-61
2021/03/28 13:29:37;;;;;;;7.20;3.77;;;;;;;;;;777914;179;637070;-61
2021/03/28 13:32:03;;;;;;;9.60;3.47;;;;;;;;;;784229;179;648678;-61
2021/03/28 13:34:31;;;;;;;6.10;3.07;;;;;;;;;;779976;179;625506;-61
2021/03/28 13:36:58;;;;;;;10.80;3.40;;;;;;;;;;781564;179;649557;-61
2021/03/28 13:39:24;;;;;;;8.37;3.20;;;;;;;;;;777714;179;631909;-61
2021/03/28 13:41:56;;;;;;;8.23;3.47;;;;;;;;;;784363;179;629897;-61
2021/03/28 13:44:23;;;;;;;7.50;3.47;;;;;;;;;;780683;179;659544;-61
2021/03/28 13:46:49;;;;;;;5.97;4.20;;;;;;;;;;775898;179;1647636;-61
2021/03/28 13:49:21;;;;;;;8.30;3.90;;;;;;;;;;782204;179;649332;-61
2021/03/28 13:51:47;;;;;;;12.17;3.10;;;;;;;;;;789153;179;640891;-60
2021/03/28 13:54:15;;;;;;;13.13;3.47;;;;;;;;;;776877;179;628548;-63
2021/03/28 13:56:48;;;;;;;5.73;2.50;;;;;;;;;;782744;177;619500;-61
2021/03/28 13:59:18;;;;;;;6.47;3.50;;;;;;;;;;781540;179;639321;-61
2021/03/28 14:01:45;;;;;;;9.27;3.77;;;;;;;;;;789131;179;616267;-62
2021/03/28 14:04:17;;;;;;;14.10;3.63;;;;;;;;;;778006;179;941903;-61
2021/03/28 14:06:43;;;;;;;5.40;3.57;;;;;;;;;;784728;178;674200;-63
2021/03/28 14:09:09;;;;;;;9.47;3.93;;;;;;;;;;780348;179;626631;-63
2021/03/28 14:11:41;;;;;;;6.60;3.83;;;;;;;;;;795285;176;622869;-62
2021/03/28 14:14:28;;;;;;;10.10;4.37;;;;;;;;;;779052;179;674061;-63
2021/03/28 14:16:54;;;;;;;6.37;3.80;;;;;;;;;;771319;179;844240;-62
2021/03/28 14:19:23;;;;;;;5.77;3.43;;;;;;;;;;780257;179;637393;-62
2021/03/28 14:21:49;;;;;;;9.70;4.37;;;;;;;;;;780811;179;783267;-64
2021/03/28 14:24:25;;;;;;;12.67;3.30;;;;;;;;;;785247;179;633715;-61
2021/03/28 14:26:53;;;;;;;8.10;3.90;;;;;;;;;;778946;179;630104;-62
2021/03/28 14:29:25;;;;;;;13.27;5.50;;;;;;;;;;779590;179;643193;-63
2021/03/28 14:31:53;;;;;;;18.67;8.60;;;;;;;;;;778726;179;647665;-62
2021/03/28 14:34:21;;;;;;;8.77;3.40;;;;;;;;;;784312;179;619924;-63
2021/03/28 14:37:02;;;;;;;7.57;4.00;;;;;;;;;;769980;180;642702;-63
2021/03/28 14:39:33;;;;;;;9.93;3.87;;;;;;;;;;778770;179;621790;-62
2021/03/28 14:42:02;;;;;;;9.03;3.43;;;;;;;;;;777703;179;619457;-63
2021/03/28 14:44:34;;;;;;;9.90;4.27;;;;;;;;;;779256;179;621177;-65
2021/03/28 14:47:03;;;;;;;8.95;3.05;;;;;;;;;;782579;179;630511;-62